Time;durP1;ratioP1;P1;durP2;ratioP2;P2;SDS_P1;SDS_P2;PMS_P1;PMS_P2;Temp;Humidity;BMP_temperature;BMP_pressure;BME280_temperature;BME280_humidity;BME280_pressure;Samples;Min_cycle;Max_cycle;Signal;HPM_P1;HPM_P2
2023/01/17 00:01:34;;;;;;;1.00;0.90;;;;;;;22.69;38.56;96851.57;1839776;77;28181;-51
2023/01/17 00:10:42;;;;;;;0.80;0.80;;;;;;;22.66;38.65;96839.88;1876249;76;28149;-48
2023/01/17 00:13:31;;;;;;;1.57;0.83;;;;;;;22.58;38.78;96828.20;1860821;76;28217;-49
2023/01/17 00:16:19;;;;;;;0.95;0.95;;;;;;;22.62;38.75;96823.78;1879350;75;28140;-50
2023/01/17 01:35:30;;;;;;;0.90;0.90;;;;;;;22.56;39.01;96687.61;1865316;75;28152;-52
2023/01/17 01:38:20;;;;;;;0.85;0.85;;;;;;;22.58;39.04;96680.46;1848968;76;28216;-50
2023/01/17 01:41:09;;;;;;;0.80;0.80;;;;;;;22.59;38.97;96676.63;1858301;75;28238;-53
2023/01/17 01:43:59;;;;;;;0.90;0.90;;;;;;;22.64;38.90;96677.91;1869757;76;28688;-49
2023/01/17 01:46:47;;;;;;;0.80;0.80;;;;;;;22.64;38.89;96666.41;1864135;75;28168;-49
2023/01/17 01:49:44;;;;;;;0.90;0.80;;;;;;;22.69;38.87;96665.50;1851592;76;28194;-48
2023/01/17 01:52:34;;;;;;;1.00;1.00;;;;;;;22.63;38.83;96659.33;1876347;75;28134;-50
2023/01/17 01:55:29;;;;;;;1.20;1.00;;;;;;;22.67;38.86;96660.34;1866565;76;29168;-49
2023/01/17 01:58:20;;;;;;;0.88;0.88;;;;;;;22.68;38.86;96653.73;1826204;78;28356;-53
2023/01/17 02:01:09;;;;;;;0.88;0.88;;;;;;;22.66;38.88;96651.86;1868757;76;32635;-53
2023/01/17 02:03:58;;;;;;;0.98;0.90;;;;;;;22.70;38.84;96658.92;1869515;76;28233;-47
2023/01/17 02:06:49;;;;;;;0.88;0.88;;;;;;;22.71;38.84;96656.42;1857758;76;28216;-49
2023/01/17 02:09:37;;;;;;;0.80;0.80;;;;;;;22.73;38.78;96650.67;1878279;75;28228;-50
2023/01/17 02:12:26;;;;;;;1.10;1.00;;;;;;;22.73;38.79;96639.17;1868126;76;28039;-50
2023/01/17 02:15:18;;;;;;;0.95;0.80;;;;;;;22.73;38.77;96624.67;1885087;75;38500;-49
2023/01/17 02:18:22;;;;;;;1.00;1.00;;;;;;;22.74;38.80;96619.44;1874760;76;28143;-49
2023/01/17 02:21:25;;;;;;;0.93;0.93;;;;;;;22.75;38.77;96616.41;1845465;77;28244;-48
2023/01/17 02:24:32;;;;;;;1.15;1.00;;;;;;;22.73;38.79;96602.78;1843152;77;28337;-53
2023/01/17 02:27:29;;;;;;;1.10;0.90;;;;;;;22.70;38.81;96605.56;1841638;77;28262;-48
2023/01/17 02:30:28;;;;;;;1.52;1.00;;;;;;;22.67;38.85;96608.91;1817010;77;28247;-50
2023/01/17 02:33:40;;;;;;;0.80;0.80;;;;;;;22.68;38.86;96618.16;1883918;75;28245;-52
2023/01/17 02:36:37;;;;;;;1.12;1.02;;;;;;;22.69;38.84;96592.98;1877302;75;28118;-51
2023/01/17 02:39:32;;;;;;;0.93;0.93;;;;;;;22.69;38.82;96587.52;1874437;75;28136;-50
2023/01/17 02:42:25;;;;;;;0.90;0.90;;;;;;;22.70;38.86;96568.63;1881458;75;28051;-52
2023/01/17 02:45:19;;;;;;;0.90;0.90;;;;;;;22.72;38.88;96556.81;1841962;77;28166;-53
2023/01/17 02:48:13;;;;;;;0.95;0.95;;;;;;;22.74;38.86;96545.55;1838126;77;28198;-51
2023/01/17 02:51:10;;;;;;;1.00;1.00;;;;;;;22.75;38.81;96526.11;1858564;76;28285;-53
2023/01/17 02:54:04;;;;;;;1.50;1.00;;;;;;;22.74;38.78;96506.69;1876982;75;28178;-51
2023/01/17 02:57:11;;;;;;;0.93;0.93;;;;;;;22.69;38.80;96521.84;1862365;76;28246;-48
2023/01/17 03:00:05;;;;;;;1.15;1.05;;;;;;;22.57;39.03;96518.78;1881704;75;28163;-50
2023/01/17 03:03:13;;;;;;;1.60;0.90;;;;;;;22.51;39.10;96505.80;1851293;76;28162;-54
2023/01/17 03:06:10;;;;;;;0.80;0.80;;;;;;;22.53;39.14;96504.92;1858399;75;28200;-50
2023/01/17 03:08:54;;;;;;;1.40;1.02;;;;;;;22.55;39.12;96496.41;1869052;75;28164;-50
2023/01/17 03:11:43;;;;;;;1.22;0.90;;;;;;;22.56;39.12;96489.28;1884198;75;28228;-54
2023/01/17 03:14:30;;;;;;;0.88;0.88;;;;;;;;;;1860265;75;28184;-49
2023/01/17 03:17:19;;;;;;;1.05;0.95;;;;;;;22.61;39.08;96448.72;1881871;75;28230;-51
2023/01/17 03:20:09;;;;;;;0.97;0.87;;;;;;;22.65;38.97;96449.16;1884100;75;28225;-52
2023/01/17 03:22:57;;;;;;;1.00;0.90;;;;;;;22.70;39.00;96445.50;1876875;75;28319;-53
2023/01/17 03:25:46;;;;;;;0.68;0.68;;;;;;;22.69;38.96;96446.60;1856838;75;28243;-52
2023/01/17 03:28:34;;;;;;;1.20;0.82;;;;;;;22.75;38.86;96437.17;1867167;75;28133;-53
2023/01/17 03:31:23;;;;;;;0.90;0.90;;;;;;;22.79;38.77;96435.43;1874473;75;28156;-52
2023/01/17 03:34:11;;;;;;;0.82;0.82;;;;;;;22.76;38.85;96430.57;1876035;75;37416;-51
2023/01/17 03:36:59;;;;;;;2.40;0.90;;;;;;;22.75;38.83;96436.36;1851851;76;28235;-51
2023/01/17 03:39:47;;;;;;;0.80;0.80;;;;;;;22.80;38.77;96408.88;1868864;75;28259;-50
2023/01/17 03:42:35;;;;;;;1.12;0.80;;;;;;;22.86;38.75;96405.70;1866559;76;28165;-51
2023/01/17 03:45:24;;;;;;;0.90;0.90;;;;;;;22.89;38.63;96396.88;1873672;75;28193;-52
2023/01/17 03:48:12;;;;;;;1.30;1.00;;;;;;;22.92;38.65;96380.41;1881460;75;28096;-50
2023/01/17 03:51:03;;;;;;;0.90;0.90;;;;;;;22.88;38.63;96377.47;1882563;75;28388;-49
2023/01/17 03:53:52;;;;;;;1.20;1.10;;;;;;;22.95;38.58;96386.59;1879452;75;28137;-50
2023/01/17 03:56:40;;;;;;;0.80;0.80;;;;;;;22.91;38.58;96381.51;1871791;75;38564;-50
2023/01/17 03:59:28;;;;;;;0.95;0.80;;;;;;;22.93;38.61;96384.19;1849896;76;28207;-50
2023/01/17 04:02:17;;;;;;;0.88;0.88;;;;;;;22.94;38.58;96385.00;1879798;75;28110;-52
2023/01/17 04:05:06;;;;;;;0.90;0.90;;;;;;;22.97;38.47;96382.44;1836559;77;28252;-48
2023/01/17 04:07:54;;;;;;;1.15;1.00;;;;;;;22.99;38.43;96371.98;1854494;76;28206;-52
2023/01/17 04:10:43;;;;;;;1.10;1.10;;;;;;;23.03;38.30;96379.84;1848693;76;28340;-51
2023/01/17 04:13:31;;;;;;;0.95;0.95;;;;;;;23.04;38.26;96367.75;1869116;76;28577;-50
2023/01/17 04:16:21;;;;;;;2.12;1.00;;;;;;;23.09;38.20;96367.63;1853685;76;28324;-53
2023/01/17 04:19:12;;;;;;;1.00;0.97;;;;;;;23.16;38.03;96350.19;1858113;75;28196;-52
2023/01/17 04:22:01;;;;;;;1.45;1.35;;;;;;;23.15;37.99;96343.08;1848451;76;28188;-49
2023/01/17 04:24:50;;;;;;;0.90;0.90;;;;;;;23.17;37.93;96354.55;1869218;76;28205;-48
2023/01/17 04:27:38;;;;;;;0.88;0.75;;;;;;;23.13;37.97;96337.67;1858037;76;28385;-48
2023/01/17 04:30:28;;;;;;;1.00;1.00;;;;;;;23.14;37.99;96352.44;1854578;76;28354;-49
2023/01/17 04:33:17;;;;;;;1.05;1.05;;;;;;;23.14;37.93;96342.04;1858887;76;28284;-48
2023/01/17 04:36:05;;;;;;;1.07;1.07;;;;;;;23.10;37.96;96335.03;1843017;75;28306;-47
2023/01/17 04:38:54;;;;;;;1.05;1.00;;;;;;;23.11;37.97;96324.30;1885031;75;28147;-49
2023/01/17 04:41:42;;;;;;;1.40;1.00;;;;;;;23.15;37.92;96311.59;1850890;76;28336;-53
2023/01/17 04:44:30;;;;;;;1.30;1.20;;;;;;;23.14;37.87;96305.89;1861496;76;28327;-51
2023/01/17 04:47:19;;;;;;;0.93;0.93;;;;;;;23.18;37.80;96308.80;1874438;75;28133;-49
2023/01/17 04:50:09;;;;;;;0.90;0.90;;;;;;;23.23;37.64;96275.80;1851463;76;28376;-52
2023/01/17 04:52:59;;;;;;;1.00;1.00;;;;;;;23.23;37.66;96277.98;1851068;76;28151;-49
2023/01/17 04:55:47;;;;;;;1.00;1.00;;;;;;;23.22;37.68;96268.14;1862566;76;30226;-49
2023/01/17 04:58:36;;;;;;;1.10;1.10;;;;;;;23.27;37.60;96260.34;1848504;76;28097;-48
2023/01/17 05:01:24;;;;;;;0.93;0.93;;;;;;;23.27;37.53;96254.31;1842050;77;28203;-50
2023/01/17 05:04:12;;;;;;;0.95;0.95;;;;;;;23.28;37.52;96244.17;1848109;75;28305;-49
2023/01/17 05:07:01;;;;;;;1.62;1.05;;;;;;;23.26;37.47;96238.20;1847852;76;28219;-48
2023/01/17 05:09:50;;;;;;;1.00;1.00;;;;;;;23.22;37.61;96244.86;1848637;76;28352;-50
2023/01/17 05:12:38;;;;;;;0.95;0.95;;;;;;;23.19;37.65;96235.94;1869332;75;28165;-51
2023/01/17 05:15:27;;;;;;;0.88;0.88;;;;;;;23.20;37.64;96235.34;1867861;75;28131;-53
2023/01/17 05:18:17;;;;;;;1.50;0.90;;;;;;;23.22;37.63;96233.13;1875074;75;31258;-48
2023/01/17 05:21:06;;;;;;;0.80;0.80;;;;;;;23.19;37.70;96240.04;1868055;76;28185;-49
2023/01/17 05:23:54;;;;;;;0.80;0.80;;;;;;;23.23;37.65;96245.67;1849462;76;28128;-52
2023/01/17 05:26:42;;;;;;;0.80;0.80;;;;;;;23.23;37.72;96252.52;1874695;75;28072;-51
2023/01/17 05:29:31;;;;;;;1.60;0.93;;;;;;;23.22;37.81;96256.41;1840859;76;28288;-51
2023/01/17 05:32:19;;;;;;;0.98;0.98;;;;;;;23.26;37.81;96262.30;1892546;75;28120;-51
2023/01/17 05:35:09;;;;;;;1.60;0.85;;;;;;;23.27;37.70;96248.83;1837675;77;38802;-52
2023/01/17 05:37:57;;;;;;;0.97;0.90;;;;;;;23.32;37.59;96244.59;1849142;77;28264;-49
2023/01/17 05:40:45;;;;;;;0.88;0.88;;;;;;;23.31;37.67;96245.70;1870765;76;28247;-49
2023/01/17 05:43:33;;;;;;;0.90;0.80;;;;;;;23.38;37.65;96240.37;1868257;75;28187;-51
2023/01/17 05:46:22;;;;;;;1.62;0.98;;;;;;;23.32;37.68;96255.55;1855921;75;28405;-49
2023/01/17 05:49:10;;;;;;;0.80;0.80;;;;;;;23.33;37.69;96260.47;1860894;76;28761;-50
2023/01/17 05:51:58;;;;;;;0.97;0.90;;;;;;;23.36;37.62;96251.06;1837634;77;28338;-52
2023/01/17 05:54:49;;;;;;;1.07;1.07;;;;;;;23.40;37.64;96246.33;1876411;75;32447;-52
2023/01/17 05:57:38;;;;;;;1.00;0.98;;;;;;;23.42;37.62;96242.16;1855358;76;28267;-48
2023/01/17 06:00:27;;;;;;;0.80;0.80;;;;;;;23.36;37.59;96229.74;1854357;75;28265;-49
2023/01/17 06:03:16;;;;;;;0.85;0.85;;;;;;;23.33;37.74;96232.52;1865744;76;28226;-50
2023/01/17 06:06:05;;;;;;;0.80;0.80;;;;;;;23.38;37.67;96217.91;1859865;76;28195;-50
2023/01/17 06:08:53;;;;;;;0.73;0.73;;;;;;;23.40;37.68;96212.91;1866131;75;28272;-54
2023/01/17 06:11:42;;;;;;;0.70;0.70;;;;;;;23.37;37.70;96212.16;1856642;76;28311;-50
2023/01/17 06:14:30;;;;;;;1.20;0.75;;;;;;;23.36;37.75;96207.83;1860619;76;28283;-51
2023/01/17 06:17:18;;;;;;;1.60;1.10;;;;;;;23.36;37.73;96215.46;1858384;75;28136;-50
2023/01/17 06:20:08;;;;;;;1.00;1.00;;;;;;;23.35;37.79;96230.30;1872892;75;28267;-50
2023/01/17 06:22:58;;;;;;;0.70;0.70;;;;;;;23.36;37.80;96223.67;1864122;75;28279;-51
2023/01/17 06:25:49;;;;;;;0.80;0.80;;;;;;;23.40;37.76;96220.31;1850159;76;28129;-50
2023/01/17 06:28:38;;;;;;;0.80;0.80;;;;;;;23.38;37.73;96228.05;1794062;79;28292;-51
2023/01/17 06:31:26;;;;;;;1.27;1.17;;;;;;;23.36;37.72;96231.89;1824080;77;28134;-50
2023/01/17 06:34:14;;;;;;;1.10;1.10;;;;;;;23.32;36.44;96251.98;1847888;77;28297;-48
2023/01/17 06:37:03;;;;;;;1.00;1.00;;;;;;;23.33;36.02;96262.64;1812557;77;32348;-51
2023/01/17 06:39:51;;;;;;;1.10;1.10;;;;;;;23.33;35.94;96267.31;1820102;77;28249;-51
2023/01/17 06:42:39;;;;;;;1.30;1.20;;;;;;;23.36;35.90;96254.39;1830437;77;28303;-47
2023/01/17 06:45:29;;;;;;;1.50;1.10;;;;;;;23.34;35.88;96251.10;1795940;79;28282;-51
2023/01/17 06:48:17;;;;;;;1.00;1.00;;;;;;;23.26;36.04;96260.93;1798066;78;28242;-51
2023/01/17 06:51:06;;;;;;;1.10;1.00;;;;;;;23.23;36.12;96264.29;1838557;77;28256;-53
2023/01/17 06:53:54;;;;;;;2.20;1.00;;;;;;;23.23;36.22;96271.14;1824007;76;38725;-50
2023/01/17 06:56:44;;;;;;;2.08;1.37;;;;;;;23.26;36.23;96258.75;1881756;75;28315;-49
2023/01/17 06:59:33;;;;;;;1.20;1.10;;;;;;;23.28;36.27;96270.19;1896035;75;28148;-50
2023/01/17 07:02:21;;;;;;;1.52;0.98;;;;;;;23.22;36.42;96261.30;1879225;75;28225;-50
2023/01/17 07:05:10;;;;;;;2.58;1.30;;;;;;;23.26;36.57;96261.48;1876263;75;28250;-54
2023/01/17 07:07:59;;;;;;;1.25;1.20;;;;;;;23.20;36.67;96253.96;1847445;76;28257;-49
2023/01/17 07:10:48;;;;;;;2.72;1.20;;;;;;;23.20;36.83;96271.76;1857206;76;28212;-50
2023/01/17 07:13:39;;;;;;;3.22;1.30;;;;;;;23.21;37.24;96262.98;1851778;76;28249;-49
2023/01/17 07:16:27;;;;;;;1.42;1.10;;;;;;;23.25;37.48;96269.44;1884558;75;28215;-47
2023/01/17 07:19:15;;;;;;;2.05;1.42;;;;;;;23.28;37.63;96276.48;1881383;75;28222;-48
2023/01/17 07:22:04;;;;;;;2.60;1.40;;;;;;;23.32;37.77;96267.05;1856707;75;28296;-50
2023/01/17 07:24:57;;;;;;;1.32;1.30;;;;;;;23.35;37.84;96260.42;1870672;76;31262;-48
2023/01/17 07:27:45;;;;;;;1.37;1.30;;;;;;;23.36;37.93;96263.98;1883293;75;28743;-48
2023/01/17 07:30:34;;;;;;;1.45;1.20;;;;;;;23.38;37.96;96255.44;1881674;75;28111;-51
2023/01/17 07:33:22;;;;;;;2.87;1.40;;;;;;;23.38;38.02;96254.88;1850196;76;28216;-50
2023/01/17 07:36:11;;;;;;;1.57;1.37;;;;;;;23.35;38.15;96270.02;1848477;76;28396;-51
2023/01/17 07:39:00;;;;;;;2.12;1.45;;;;;;;23.35;38.19;96257.69;1879469;75;28189;-49
2023/01/17 07:41:48;;;;;;;1.47;1.25;;;;;;;23.31;38.31;96263.50;1850527;76;28302;-51
2023/01/17 07:44:38;;;;;;;1.42;1.10;;;;;;;23.32;38.35;96273.34;1881651;76;28692;-52
2023/01/17 07:47:27;;;;;;;1.60;1.20;;;;;;;23.32;38.35;96274.71;1879335;75;28225;-52
2023/01/17 07:50:15;;;;;;;1.60;1.40;;;;;;;23.33;38.44;96267.31;1862660;75;28290;-47
2023/01/17 07:53:05;;;;;;;1.85;1.40;;;;;;;23.31;38.46;96260.76;1883707;75;28310;-48
2023/01/17 07:55:53;;;;;;;3.12;1.30;;;;;;;23.34;38.47;96258.80;1853325;76;27821;-46
2023/01/17 07:58:41;;;;;;;1.60;1.22;;;;;;;23.35;38.45;96266.46;1858338;76;28283;-49
2023/01/17 08:01:30;;;;;;;1.45;1.25;;;;;;;23.35;38.50;96256.31;1856717;75;28170;-49
2023/01/17 08:04:19;;;;;;;1.85;1.17;;;;;;;23.33;38.51;96258.54;1848655;76;28791;-47
2023/01/17 08:07:12;;;;;;;1.47;1.37;;;;;;;23.32;38.57;96262.39;1851307;75;28183;-50
2023/01/17 08:10:01;;;;;;;2.27;1.20;;;;;;;23.35;38.58;96271.94;1847246;77;28168;-50
2023/01/17 08:12:50;;;;;;;2.27;1.20;;;;;;;23.38;38.52;96267.76;1889605;75;28146;-46
2023/01/17 08:15:38;;;;;;;1.20;1.20;;;;;;;23.38;38.45;96272.09;1847698;76;28325;-50
2023/01/17 08:18:27;;;;;;;1.60;1.20;;;;;;;23.35;38.51;96273.30;1857209;76;28192;-50
2023/01/17 08:21:16;;;;;;;1.77;1.30;;;;;;;23.33;38.56;96276.34;1850708;76;28823;-49
2023/01/17 08:24:06;;;;;;;1.15;1.15;;;;;;;23.39;38.54;96266.06;1858899;75;28202;-51
2023/01/17 08:26:55;;;;;;;1.20;1.20;;;;;;;23.38;38.51;96263.88;1843443;77;28737;-47
2023/01/17 08:29:51;;;;;;;1.45;1.30;;;;;;;23.38;38.50;96258.17;1873224;75;28240;-48
2023/01/17 08:32:45;;;;;;;2.08;1.50;;;;;;;23.38;38.46;96273.46;1868148;75;28175;-47
2023/01/17 08:35:33;;;;;;;1.47;1.20;;;;;;;23.33;38.56;96279.08;1851422;76;28273;-47
2023/01/17 08:38:22;;;;;;;1.52;1.40;;;;;;;23.36;38.55;96274.34;1880821;75;28179;-49
2023/01/17 08:41:11;;;;;;;1.50;1.30;;;;;;;23.38;38.47;96267.20;1870957;75;28361;-50
2023/01/17 08:44:00;;;;;;;1.15;1.10;;;;;;;23.35;38.54;96270.56;1877721;75;28215;-48
2023/01/17 08:46:48;;;;;;;0.93;0.93;;;;;;;23.33;38.61;96264.57;1851065;75;28237;-48
2023/01/17 08:49:37;;;;;;;1.50;1.32;;;;;;;23.36;38.59;96259.28;1841091;76;28259;-49
2023/01/17 08:52:26;;;;;;;1.20;1.12;;;;;;;23.34;38.54;96243.73;1863909;76;28121;-48
2023/01/17 08:55:14;;;;;;;1.35;1.20;;;;;;;23.33;38.58;96235.26;1869063;76;28271;-50
2023/01/17 08:58:02;;;;;;;1.30;1.10;;;;;;;23.37;38.57;96234.08;1848475;76;28336;-53
2023/01/17 09:01:06;;;;;;;1.60;1.30;;;;;;;23.36;38.54;96236.59;1849851;76;28082;-49
2023/01/17 09:03:54;;;;;;;0.98;0.98;;;;;;;23.36;38.53;96237.38;1874453;75;28158;-52
2023/01/17 09:06:47;;;;;;;1.17;1.17;;;;;;;23.33;38.58;96242.11;1872201;75;28315;-48
2023/01/17 09:09:35;;;;;;;1.02;1.00;;;;;;;23.36;38.52;96259.28;1868577;75;28177;-50
2023/01/17 09:12:23;;;;;;;1.10;1.02;;;;;;;23.38;38.46;96258.40;1837431;77;28682;-50
2023/01/17 09:15:16;;;;;;;1.30;1.15;;;;;;;23.36;38.51;96257.13;1879312;75;28261;-50
2023/01/17 09:18:03;;;;;;;1.82;1.20;;;;;;;23.38;38.45;96255.66;1869126;76;28665;-47
2023/01/17 09:20:58;;;;;;;1.10;1.10;;;;;;;23.37;38.49;96249.14;1851656;76;28275;-47
2023/01/17 09:23:43;;;;;;;1.30;1.20;;;;;;;23.36;38.48;96248.91;1849706;76;28275;-47
2023/01/17 09:26:31;;;;;;;1.12;1.10;;;;;;;23.38;38.46;96243.34;1868959;76;28273;-51
2023/01/17 09:29:20;;;;;;;1.27;1.17;;;;;;;23.38;38.46;96233.75;1847820;76;28437;-50
2023/01/17 09:32:08;;;;;;;1.17;1.17;;;;;;;23.38;38.48;96217.09;1853030;76;28254;-50
2023/01/17 09:34:59;;;;;;;1.47;1.13;;;;;;;23.41;38.44;96216.45;1848419;76;28247;-49
2023/01/17 09:37:53;;;;;;;0.95;0.95;;;;;;;23.38;38.44;96223.38;1868918;76;28220;-49
2023/01/17 09:40:47;;;;;;;1.00;1.00;;;;;;;23.40;38.42;96220.31;1845814;76;28322;-48
2023/01/17 09:43:42;;;;;;;1.10;1.00;;;;;;;23.41;38.43;96223.31;1856302;76;28359;-51
2023/01/17 09:46:34;;;;;;;0.98;0.95;;;;;;;23.42;38.42;96218.05;1854797;76;28347;-49
2023/01/17 09:49:44;;;;;;;1.10;1.10;;;;;;;23.42;38.43;96227.64;1856648;75;28293;-51
2023/01/17 09:52:33;;;;;;;1.30;1.10;;;;;;;23.41;37.88;96245.22;1849864;76;28330;-50
2023/01/17 09:55:22;;;;;;;1.72;1.17;;;;;;;23.36;37.79;96251.66;1846974;76;28208;-50
2023/01/17 09:58:22;;;;;;;2.00;1.10;;;;;;;23.37;37.75;96240.92;1858819;76;28283;-50
2023/01/17 10:01:15;;;;;;;1.00;1.00;;;;;;;23.36;37.76;96229.16;1869928;75;28176;-48
2023/01/17 10:04:13;;;;;;;1.10;1.10;;;;;;;23.33;37.80;96238.00;1851593;76;28257;-51
2023/01/17 10:07:14;;;;;;;2.20;1.05;;;;;;;23.38;37.76;96244.48;1871721;75;28232;-49
2023/01/17 10:10:09;;;;;;;1.85;1.10;;;;;;;23.35;37.78;96250.02;1882871;75;28259;-46
2023/01/17 10:13:00;;;;;;;1.00;1.00;;;;;;;23.40;37.52;96240.86;1860052;76;31239;-48
2023/01/17 10:15:51;;;;;;;1.05;1.02;;;;;;;23.43;36.82;96242.97;1859779;75;28333;-50
2023/01/17 10:18:55;;;;;;;1.20;1.10;;;;;;;23.34;36.96;96224.56;1878574;75;28297;-48
2023/01/17 10:22:03;;;;;;;1.12;1.07;;;;;;;23.31;37.02;96208.72;1870810;76;28219;-47
2023/01/17 10:25:15;;;;;;;1.00;1.00;;;;;;;23.30;37.12;96213.98;1839822;75;28270;-47
2023/01/17 10:28:20;;;;;;;1.20;1.10;;;;;;;23.27;37.08;96206.38;1837722;77;28331;-48
2023/01/17 10:31:14;;;;;;;1.65;1.10;;;;;;;23.25;37.23;96199.05;1837568;77;28301;-49
2023/01/17 10:34:08;;;;;;;0.90;0.90;;;;;;;23.25;37.26;96202.34;1879369;75;28185;-48
2023/01/17 10:37:00;;;;;;;2.00;0.93;;;;;;;23.21;37.26;96209.59;1883026;75;28075;-48
2023/01/17 10:39:51;;;;;;;0.88;0.88;;;;;;;23.17;37.38;96197.11;1856114;76;28152;-49
2023/01/17 10:42:48;;;;;;;1.10;1.10;;;;;;;23.21;37.34;96195.91;1850072;76;28184;-47
2023/01/17 10:45:38;;;;;;;1.25;1.15;;;;;;;23.18;37.40;96191.05;1874289;75;28314;-46
2023/01/17 10:48:41;;;;;;;1.00;1.00;;;;;;;23.17;37.40;96182.05;1854906;76;28260;-46
2023/01/17 10:51:58;;;;;;;1.40;1.00;;;;;;;23.21;37.40;96189.87;1868944;76;28264;-47
2023/01/17 10:55:10;;;;;;;1.47;1.00;;;;;;;23.17;37.47;96193.01;1847438;76;28159;-46
2023/01/17 10:57:58;;;;;;;1.02;0.93;;;;;;;23.13;37.53;96204.33;1856486;76;28223;-49
2023/01/17 11:00:58;;;;;;;1.15;1.05;;;;;;;23.12;37.71;96197.26;1846150;76;28234;-50
2023/01/17 11:03:54;;;;;;;1.02;1.02;;;;;;;23.12;37.72;96195.89;1849520;76;28219;-51
2023/01/17 11:06:45;;;;;;;1.10;1.10;;;;;;;23.11;37.92;96203.03;1873673;75;28178;-49
2023/01/17 11:09:40;;;;;;;1.22;1.17;;;;;;;23.14;37.90;96206.51;1840594;76;28331;-49
2023/01/17 11:12:42;;;;;;;1.65;1.15;;;;;;;23.17;37.93;96205.88;1851643;76;28155;-48
2023/01/17 11:15:33;;;;;;;1.35;1.10;;;;;;;23.16;37.98;96203.70;1847891;76;28258;-49
2023/01/17 11:18:23;;;;;;;2.00;1.20;;;;;;;23.16;38.03;96202.33;1883673;75;28233;-49
2023/01/17 11:21:22;;;;;;;1.50;1.10;;;;;;;23.19;38.14;96215.40;1868473;76;28275;-48
2023/01/17 11:24:13;;;;;;;1.30;1.20;;;;;;;23.18;38.23;96207.48;1843344;77;28083;-50
2023/01/17 11:27:06;;;;;;;1.22;1.20;;;;;;;23.21;38.29;96228.76;1838134;77;28263;-51
2023/01/17 11:30:08;;;;;;;1.60;1.20;;;;;;;23.16;38.40;96237.92;1844535;76;28163;-47
2023/01/17 11:33:03;;;;;;;2.27;1.10;;;;;;;23.18;38.40;96237.60;1873833;76;28232;-48
2023/01/17 11:35:51;;;;;;;1.62;1.30;;;;;;;23.18;38.47;96237.05;1870982;76;28220;-47
2023/01/17 11:39:02;;;;;;;1.20;1.10;;;;;;;23.23;38.43;96231.98;1892636;75;28130;-51
2023/01/17 11:41:57;;;;;;;1.72;1.10;;;;;;;23.23;38.55;96214.19;1841104;77;28223;-48
2023/01/17 11:44:47;;;;;;;1.32;1.20;;;;;;;23.22;38.59;96203.79;1849534;77;28240;-50
2023/01/17 11:47:35;;;;;;;1.30;1.20;;;;;;;23.19;38.62;96200.34;1881286;75;28098;-49
2023/01/17 11:50:26;;;;;;;1.27;1.27;;;;;;;23.26;38.56;96208.89;1868804;75;28231;-46
2023/01/17 11:53:35;;;;;;;2.00;1.10;;;;;;;23.25;38.60;96200.42;1852592;77;28453;-48
2023/01/17 11:56:35;;;;;;;2.23;1.40;;;;;;;23.25;38.62;96211.94;1877495;75;28130;-50
2023/01/17 11:59:36;;;;;;;1.20;1.10;;;;;;;23.20;38.71;96188.24;1873853;75;28206;-47
2023/01/17 12:02:39;;;;;;;2.22;1.20;;;;;;;23.17;38.77;96190.27;1855670;76;28192;-49
2023/01/17 12:05:53;;;;;;;2.20;1.43;;;;;;;23.20;38.80;96190.17;1825820;78;28335;-52
2023/01/17 12:08:54;;;;;;;1.30;1.20;;;;;;;23.19;38.70;96186.65;1864922;75;28139;-48
2023/01/17 12:15:26;;;;;;;1.42;1.22;;;;;;;23.21;38.80;96207.67;1840962;77;28356;-49
2023/01/17 12:18:35;;;;;;;1.60;1.10;;;;;;;23.16;38.77;96180.98;1838778;77;28256;-46
2023/01/17 12:21:26;;;;;;;1.65;1.10;;;;;;;23.15;38.80;96195.23;1846057;75;28227;-50
2023/01/17 12:24:30;;;;;;;2.30;1.00;;;;;;;23.15;38.91;96176.65;1851487;76;29549;-51
2023/01/17 12:27:33;;;;;;;1.77;1.10;;;;;;;23.23;38.78;96188.17;1817188;76;28254;-46
2023/01/17 12:30:34;;;;;;;1.52;1.20;;;;;;;23.18;38.77;96169.96;1863056;76;28305;-47
2023/01/17 12:33:34;;;;;;;2.30;1.20;;;;;;;23.18;38.83;96170.52;1881613;75;28125;-47
2023/01/17 12:36:29;;;;;;;1.37;1.27;;;;;;;23.18;38.78;96180.10;1850329;76;28245;-45
2023/01/17 12:39:23;;;;;;;1.13;1.10;;;;;;;23.16;38.84;96159.89;1826012;78;28304;-47
2023/01/17 12:42:17;;;;;;;1.02;1.00;;;;;;;23.19;38.86;96179.80;1863828;76;28099;-53
2023/01/17 12:45:15;;;;;;;0.90;0.90;;;;;;;23.18;38.87;96171.33;1866806;76;28227;-49
2023/01/17 12:48:07;;;;;;;1.00;1.00;;;;;;;23.24;38.70;96171.41;1876494;75;31260;-51
2023/01/17 12:51:10;;;;;;;1.10;1.10;;;;;;;23.24;38.78;96163.20;1847445;76;28167;-49
2023/01/17 12:54:25;;;;;;;1.30;1.20;;;;;;;23.25;38.67;96157.16;1840282;77;28305;-47
2023/01/17 12:57:19;;;;;;;0.98;0.98;;;;;;;23.23;38.69;96149.28;1843963;76;28300;-48
2023/01/17 13:00:18;;;;;;;1.20;1.20;;;;;;;23.19;38.72;96121.48;1836179;75;28315;-50
2023/01/17 13:03:19;;;;;;;1.45;1.32;;;;;;;23.16;38.79;96116.09;1856743;77;28322;-47
2023/01/17 13:06:09;;;;;;;0.98;0.98;;;;;;;23.19;38.69;96108.61;1861866;76;28090;-48
2023/01/17 13:09:00;;;;;;;0.90;0.90;;;;;;;23.20;38.72;96100.63;1850849;77;28158;-50
2023/01/17 13:11:51;;;;;;;1.00;1.00;;;;;;;23.19;38.71;96091.37;1840354;76;28181;-51
2023/01/17 13:14:39;;;;;;;2.58;1.30;;;;;;;23.22;38.71;96092.89;1880072;76;28223;-46
2023/01/17 13:17:34;;;;;;;1.00;1.00;;;;;;;23.22;38.70;96097.00;1855374;76;28212;-49
2023/01/17 13:20:32;;;;;;;1.13;1.00;;;;;;;23.21;38.61;96084.45;1837477;77;28363;-46
2023/01/17 13:23:41;;;;;;;1.12;1.10;;;;;;;23.19;38.67;96090.81;1856771;75;28108;-46
2023/01/17 13:26:57;;;;;;;1.17;1.17;;;;;;;23.23;38.62;96088.22;1864224;76;28284;-46
2023/01/17 13:30:06;;;;;;;1.20;1.10;;;;;;;23.16;38.64;96087.34;1839560;77;28267;-48
2023/01/17 13:33:20;;;;;;;1.20;1.10;;;;;;;23.11;38.75;96101.73;1864255;75;28102;-46
2023/01/17 13:36:28;;;;;;;1.25;1.15;;;;;;;23.09;38.79;96093.84;1852694;76;28133;-48
2023/01/17 13:39:35;;;;;;;1.07;1.07;;;;;;;23.07;38.84;96098.03;1850042;76;28127;-51
2023/01/17 13:42:26;;;;;;;1.25;1.15;;;;;;;23.10;38.82;96094.66;1837860;77;28213;-45
2023/01/17 13:45:20;;;;;;;1.50;1.10;;;;;;;23.11;38.81;96096.25;1868797;76;28250;-46
2023/01/17 13:48:18;;;;;;;0.98;0.98;;;;;;;23.12;38.80;96093.77;1868662;76;28137;-48
2023/01/17 13:51:13;;;;;;;1.20;1.10;;;;;;;23.15;38.69;96104.09;1855165;77;28316;-46
2023/01/17 13:54:01;;;;;;;1.10;1.00;;;;;;;23.13;38.76;96112.61;1857786;76;28196;-47
2023/01/17 13:56:51;;;;;;;1.40;0.93;;;;;;;23.14;38.69;96121.63;1884190;75;28706;-48
2023/01/17 13:59:39;;;;;;;1.05;1.00;;;;;;;23.16;38.72;96117.45;1883843;75;28136;-47
2023/01/17 14:02:37;;;;;;;1.22;1.20;;;;;;;23.17;38.64;96130.59;1860609;76;28192;-48
2023/01/17 14:05:40;;;;;;;1.90;0.90;;;;;;;23.17;38.66;96129.22;1866133;76;28168;-47
2023/01/17 14:08:30;;;;;;;1.00;1.00;;;;;;;23.22;38.66;96141.39;1854897;76;28350;-47
2023/01/17 14:11:19;;;;;;;1.20;1.10;;;;;;;23.17;38.56;96150.57;1855582;76;28208;-52
2023/01/17 14:14:44;;;;;;;1.40;0.90;;;;;;;23.17;38.61;96147.02;1855359;77;28252;-49
2023/01/17 14:17:57;;;;;;;1.47;1.10;;;;;;;23.14;38.69;96145.72;1868516;76;28185;-47
2023/01/17 14:20:49;;;;;;;1.23;1.07;;;;;;;23.05;38.76;96133.95;1831188;76;28309;-46
2023/01/17 14:23:54;;;;;;;1.10;1.10;;;;;;;23.03;38.88;96133.46;1841259;77;28191;-48
2023/01/17 14:26:53;;;;;;;0.90;0.90;;;;;;;23.03;38.84;96140.30;1844720;76;28148;-50
2023/01/17 14:29:51;;;;;;;1.10;1.10;;;;;;;23.05;38.86;96140.79;1827677;77;28336;-48
2023/01/17 14:32:40;;;;;;;1.25;1.15;;;;;;;23.09;38.80;96147.79;1824300;76;30811;-46
2023/01/17 14:35:31;;;;;;;0.95;0.95;;;;;;;23.09;38.82;96154.08;1859995;76;28328;-52
2023/01/17 14:38:23;;;;;;;1.10;1.00;;;;;;;23.13;38.74;96146.83;1850850;76;28244;-47
2023/01/17 14:41:15;;;;;;;1.22;0.93;;;;;;;23.19;38.68;96146.95;1835218;77;28090;-47
2023/01/17 14:44:04;;;;;;;1.15;1.05;;;;;;;23.17;38.68;96134.70;1852640;77;32221;-51
2023/01/17 14:46:52;;;;;;;1.17;1.07;;;;;;;23.17;38.67;96134.14;1856348;76;28143;-50
2023/01/17 14:49:41;;;;;;;1.20;0.98;;;;;;;23.17;38.64;96128.66;1857094;77;28250;-48
2023/01/17 14:52:29;;;;;;;1.30;1.00;;;;;;;23.17;38.64;96127.85;1836314;77;28205;-48
2023/01/17 14:55:26;;;;;;;0.93;0.93;;;;;;;23.12;38.55;96142.50;1871994;76;28197;-49
2023/01/17 14:58:25;;;;;;;1.10;1.10;;;;;;;23.12;38.55;96142.50;1849252;76;28300;-48
2023/01/17 15:01:16;;;;;;;1.10;1.02;;;;;;;23.12;38.68;96145.23;1841825;76;28295;-49